Time;durP1;ratioP1;P1;durP2;ratioP2;P2;SDS_P1;SDS_P2;PMS_P1;PMS_P2;Temp;Humidity;BMP_temperature;BMP_pressure;BME280_temperature;BME280_humidity;BME280_pressure;Samples;Min_cycle;Max_cycle;Signal;HPM_P1;HPM_P2
2022/10/27 00:02:17;;;;;;;14.25;6.43;;;;;;;14.78;100.00;99380.97;4968939;28;20113;-59
2022/10/27 00:04:43;;;;;;;13.98;7.00;;;;;;;14.75;100.00;99383.88;4976264;28;20038;-60
2022/10/27 00:07:08;;;;;;;16.15;6.78;;;;;;;14.72;100.00;99386.81;4972167;28;20038;-60
2022/10/27 00:09:34;;;;;;;15.38;7.00;;;;;;;14.71;100.00;99397.41;4959192;28;20057;-59
2022/10/27 00:11:59;;;;;;;14.48;6.75;;;;;;;14.54;100.00;99385.97;4951654;28;20137;-60
2022/10/27 00:14:24;;;;;;;14.10;6.85;;;;;;;14.41;100.00;99381.94;4971130;28;20597;-60
2022/10/27 00:16:54;;;;;;;12.05;6.65;;;;;;;14.50;100.00;99376.78;4969036;28;20034;-60
2022/10/27 00:19:24;;;;;;;10.68;6.35;;;;;;;14.57;100.00;99378.69;4980016;28;20037;-60
2022/10/27 00:21:50;;;;;;;;;;;;;;;14.59;100.00;99381.16;4980054;28;20038;-60
2022/10/27 00:24:17;;;;;;;12.23;6.97;;;;;;;14.64;100.00;99381.53;4976989;28;19938;-60
2022/10/27 00:26:42;;;;;;;12.38;6.75;;;;;;;14.54;100.00;99384.19;4969953;28;20023;-59
2022/10/27 00:29:07;;;;;;;12.43;6.63;;;;;;;14.55;100.00;99383.22;4978577;28;20045;-60
2022/10/27 00:31:33;;;;;;;13.05;6.05;;;;;;;14.41;100.00;99374.09;4979914;28;20026;-60
2022/10/27 00:33:59;;;;;;;10.57;6.05;;;;;;;14.47;100.00;99396.22;4974561;28;20030;-60
2022/10/27 00:36:24;;;;;;;18.17;6.68;;;;;;;14.42;100.00;99386.22;4979817;28;20377;-60
2022/10/27 00:38:58;;;;;;;12.75;6.10;;;;;;;14.52;100.00;99401.00;4975399;28;20034;-60
2022/10/27 00:41:23;;;;;;;14.02;6.35;;;;;;;14.43;100.00;99407.97;4980029;28;20097;-60
2022/10/27 00:43:48;;;;;;;13.75;6.20;;;;;;;14.40;100.00;99401.25;4972357;28;20042;-60
2022/10/27 00:46:32;;;;;;;11.98;6.15;;;;;;;14.45;100.00;99398.16;4979349;28;20401;-60
2022/10/27 00:49:02;;;;;;;11.93;6.10;;;;;;;14.41;100.00;99400.25;4980184;28;20037;-60
2022/10/27 00:51:28;;;;;;;12.35;6.20;;;;;;;14.49;100.00;99406.53;4972016;28;20534;-60
2022/10/27 00:53:54;;;;;;;10.60;6.63;;;;;;;14.34;100.00;99364.38;4979029;28;20081;-60
2022/10/27 00:56:21;;;;;;;13.30;6.82;;;;;;;14.52;100.00;99399.22;4971507;28;20038;-60
2022/10/27 00:58:46;;;;;;;12.20;6.30;;;;;;;14.59;100.00;99396.84;4991555;28;20069;-60
2022/10/27 01:01:12;;;;;;;11.45;6.10;;;;;;;14.68;100.00;99400.38;4969066;28;20137;-60
2022/10/27 01:03:38;;;;;;;12.00;6.03;;;;;;;14.64;100.00;99407.69;4963349;28;20403;-59
2022/10/27 01:06:04;;;;;;;12.27;6.90;;;;;;;14.65;100.00;99403.28;4977515;28;20084;-60
2022/10/27 01:08:30;;;;;;;10.73;6.28;;;;;;;14.46;100.00;99401.63;4965063;28;20034;-60
2022/10/27 01:10:55;;;;;;;12.70;6.45;;;;;;;14.47;100.00;99417.16;4967730;28;20456;-61
2022/10/27 01:13:20;;;;;;;11.15;6.57;;;;;;;14.45;100.00;99426.13;4974501;28;20040;-60
2022/10/27 01:15:51;;;;;;;12.35;6.47;;;;;;;14.38;100.00;99423.28;4975638;28;20121;-60
2022/10/27 01:18:42;;;;;;;11.43;5.97;;;;;;;14.51;100.00;99430.75;4975827;28;20030;-60
2022/10/27 01:21:09;;;;;;;12.88;6.20;;;;;;;14.53;100.00;99432.28;4976595;28;20031;-60
2022/10/27 01:23:56;;;;;;;10.43;5.50;;;;;;;14.52;100.00;99438.47;4976279;28;20031;-60
2022/10/27 01:26:21;;;;;;;12.60;6.07;;;;;;;14.54;100.00;99433.91;4975771;28;20038;-60
2022/10/27 01:29:28;;;;;;;12.43;5.85;;;;;;;14.51;100.00;99428.97;4980207;28;20110;-60
2022/10/27 01:32:24;;;;;;;13.10;5.97;;;;;;;14.43;100.00;99424.47;4979620;28;20043;-60
2022/10/27 01:35:18;;;;;;;12.57;6.55;;;;;;;14.46;100.00;99420.75;4975483;28;20037;-60
2022/10/27 01:38:16;;;;;;;11.30;6.20;;;;;;;14.43;100.00;99415.81;4976088;28;20536;-60
2022/10/27 01:41:05;;;;;;;11.43;5.68;;;;;;;14.51;100.00;99422.91;4973074;28;20039;-60
2022/10/27 01:43:31;;;;;;;9.90;5.43;;;;;;;14.41;100.00;99412.53;4972885;28;20027;-60
2022/10/27 01:45:57;;;;;;;15.27;6.10;;;;;;;14.41;100.00;99415.97;4979894;28;20041;-60
2022/10/27 01:48:22;;;;;;;12.75;6.25;;;;;;;14.51;100.00;99422.91;4972991;28;20242;-60
2022/10/27 01:50:47;;;;;;;13.18;6.22;;;;;;;14.47;100.00;99418.94;4976679;28;20038;-60
2022/10/27 01:53:13;;;;;;;13.85;6.13;;;;;;;14.57;100.00;99411.84;4972580;28;20041;-60
2022/10/27 01:55:53;;;;;;;10.98;5.63;;;;;;;14.57;100.00;99414.47;4973429;28;20151;-60
2022/10/27 01:58:34;;;;;;;10.52;5.57;;;;;;;14.54;100.00;99415.59;4975432;28;20034;-60
2022/10/27 02:01:21;;;;;;;12.32;5.78;;;;;;;14.48;100.00;99415.38;4972580;28;20081;-61
2022/10/27 02:04:00;;;;;;;9.85;5.57;;;;;;;14.50;100.00;99406.38;4975182;28;20042;-60
2022/10/27 02:06:34;;;;;;;14.18;6.13;;;;;;;14.31;100.00;99381.22;4966259;28;20377;-61
2022/10/27 02:09:05;;;;;;;11.25;6.00;;;;;;;14.30;100.00;99382.19;4980455;28;20120;-61
2022/10/27 02:11:32;;;;;;;12.57;5.90;;;;;;;14.46;100.00;99417.31;4979045;28;20113;-60
2022/10/27 02:13:58;;;;;;;11.30;6.13;;;;;;;14.46;100.00;99407.69;4982329;28;20030;-60
2022/10/27 02:16:27;;;;;;;10.73;5.95;;;;;;;14.47;100.00;99417.16;4984501;28;20025;-60
2022/10/27 02:19:16;;;;;;;10.82;5.88;;;;;;;14.43;100.00;99421.03;4983557;28;20237;-60
2022/10/27 02:21:43;;;;;;;14.10;5.73;;;;;;;14.38;100.00;99421.50;4982893;28;20523;-60
2022/10/27 02:24:08;;;;;;;15.32;6.50;;;;;;;14.43;100.00;99421.03;4987779;28;20553;-60
2022/10/27 02:26:49;;;;;;;12.27;6.03;;;;;;;14.32;100.00;99406.38;4976424;28;20035;-60
2022/10/27 02:29:18;;;;;;;9.95;5.90;;;;;;;14.14;100.00;99375.00;4979945;28;20030;-60
2022/10/27 02:31:47;;;;;;;12.35;6.20;;;;;;;14.37;100.00;99413.81;4973741;28;20109;-60
2022/10/27 02:34:14;;;;;;;10.95;6.00;;;;;;;14.44;100.00;99422.69;4965613;28;20456;-60
2022/10/27 02:36:40;;;;;;;13.43;5.43;;;;;;;14.39;100.00;99415.28;4977305;28;20242;-60
2022/10/27 02:39:05;;;;;;;11.07;5.45;;;;;;;14.45;100.00;99410.44;4977025;28;20062;-60
2022/10/27 02:41:30;;;;;;;16.08;6.05;;;;;;;14.51;100.00;99417.66;4978112;28;20042;-60
2022/10/27 02:43:56;;;;;;;12.20;5.93;;;;;;;14.47;100.00;99418.94;4985532;28;20026;-61
2022/10/27 02:46:21;;;;;;;13.10;5.97;;;;;;;14.46;100.00;99420.75;4980554;28;20069;-60
2022/10/27 02:48:47;;;;;;;13.02;5.95;;;;;;;14.37;100.00;99412.00;4979728;28;20041;-60
2022/10/27 02:51:12;;;;;;;10.30;5.63;;;;;;;14.44;100.00;99414.84;4980162;28;20141;-60
2022/10/27 02:53:37;;;;;;;13.82;6.15;;;;;;;14.24;100.00;99372.31;4982431;28;20056;-60
2022/10/27 02:56:03;;;;;;;10.63;5.75;;;;;;;14.53;100.00;99428.81;4979541;28;20034;-60
2022/10/27 02:58:28;;;;;;;11.32;5.35;;;;;;;14.52;100.00;99417.53;4977128;28;20076;-61
2022/10/27 03:00:55;;;;;;;10.68;5.85;;;;;;;14.26;100.00;99380.03;4982306;28;20122;-60
2022/10/27 03:03:23;;;;;;;11.55;5.75;;;;;;;14.42;100.00;99425.47;4980728;28;20374;-60
2022/10/27 03:05:49;;;;;;;10.35;5.22;;;;;;;14.39;100.00;99424.94;4983513;28;20823;-60
2022/10/27 03:08:15;;;;;;;11.48;5.50;;;;;;;14.19;100.00;99401.53;4983104;28;20061;-60
2022/10/27 03:10:40;;;;;;;12.18;5.70;;;;;;;14.14;100.00;99398.53;4981803;28;20027;-59
2022/10/27 03:13:06;;;;;;;12.30;5.72;;;;;;;14.09;100.00;99390.34;4976320;28;20045;-60
2022/10/27 03:15:31;;;;;;;11.30;5.72;;;;;;;14.23;100.00;99430.81;4977293;28;20038;-60
2022/10/27 03:17:56;;;;;;;10.95;5.80;;;;;;;14.16;100.00;99420.13;4969142;28;20401;-60
2022/10/27 03:20:22;;;;;;;12.30;6.43;;;;;;;14.18;100.00;99422.59;4979274;28;20038;-60
2022/10/27 03:22:47;;;;;;;12.50;5.50;;;;;;;14.15;100.00;99425.53;4979095;28;20398;-60
2022/10/27 03:25:13;;;;;;;13.98;5.82;;;;;;;14.17;100.00;99426.19;4977107;28;20042;-60
2022/10/27 03:27:39;;;;;;;14.38;6.22;;;;;;;14.20;100.00;99428.50;4978262;28;20031;-59
2022/10/27 03:30:06;;;;;;;10.80;6.30;;;;;;;13.96;100.00;99387.22;4974809;28;20038;-60
2022/10/27 03:32:32;;;;;;;10.35;5.93;;;;;;;14.12;100.00;99431.03;4991873;28;20162;-60
2022/10/27 03:34:57;;;;;;;11.38;5.75;;;;;;;14.16;100.00;99429.78;4974472;28;20114;-60
2022/10/27 03:37:22;;;;;;;11.30;5.78;;;;;;;14.17;100.00;99432.25;4975694;28;20039;-59
2022/10/27 03:39:48;;;;;;;14.02;5.85;;;;;;;14.19;100.00;99432.09;4980176;28;20144;-60
2022/10/27 03:42:13;;;;;;;14.50;5.47;;;;;;;13.99;100.00;99402.63;4981790;28;20045;-60
2022/10/27 03:44:38;;;;;;;10.27;5.35;;;;;;;13.91;100.00;99390.31;4980215;28;20133;-60
2022/10/27 03:47:04;;;;;;;11.90;5.25;;;;;;;14.12;100.00;99423.19;4981852;28;20062;-60
2022/10/27 03:49:29;;;;;;;9.48;5.32;;;;;;;14.11;100.00;99432.00;4978294;28;20037;-59
2022/10/27 03:51:54;;;;;;;11.32;5.03;;;;;;;14.17;100.00;99428.81;4972736;28;20469;-60
2022/10/27 03:54:20;;;;;;;12.05;5.60;;;;;;;14.24;100.00;99437.72;4976599;28;20097;-60
2022/10/27 03:56:45;;;;;;;11.45;5.30;;;;;;;14.23;100.00;99438.66;4979932;28;20054;-60
2022/10/27 03:59:11;;;;;;;11.05;5.18;;;;;;;14.23;100.00;99434.25;4976814;28;20071;-60
2022/10/27 04:01:36;;;;;;;17.05;5.88;;;;;;;14.28;100.00;99440.88;4977430;28;20115;-61
2022/10/27 04:04:03;;;;;;;11.20;5.03;;;;;;;14.25;100.00;99447.19;4970121;28;20093;-60
2022/10/27 04:06:29;;;;;;;11.85;5.68;;;;;;;14.22;100.00;99455.34;4971030;28;20027;-61
2022/10/27 04:08:55;;;;;;;9.13;5.05;;;;;;;14.21;100.00;99459.75;4969233;28;20766;-60
2022/10/27 04:11:20;;;;;;;13.07;5.15;;;;;;;14.03;100.00;99427.50;4972841;28;20023;-61
2022/10/27 04:13:46;;;;;;;9.60;5.35;;;;;;;14.21;100.00;99458.94;4971816;28;20038;-60
2022/10/27 04:16:11;;;;;;;11.10;4.60;;;;;;;14.20;100.00;99452.03;4976675;28;20024;-60
2022/10/27 04:18:37;;;;;;;11.27;4.97;;;;;;;14.13;100.00;99453.63;4975150;28;20042;-60
2022/10/27 04:21:03;;;;;;;12.23;5.82;;;;;;;14.10;100.00;99446.88;4973820;28;20137;-60
2022/10/27 04:23:29;;;;;;;10.32;5.50;;;;;;;14.07;100.00;99454.19;4978289;28;20034;-60
2022/10/27 04:25:54;;;;;;;11.32;5.63;;;;;;;14.10;100.00;99448.69;4972616;28;20029;-60
2022/10/27 04:28:20;;;;;;;10.82;6.40;;;;;;;14.11;100.00;99453.75;4975777;28;20041;-61
2022/10/27 04:30:45;;;;;;;12.27;5.68;;;;;;;13.96;100.00;99444.75;4978691;28;20358;-60
2022/10/27 04:33:11;;;;;;;13.25;5.10;;;;;;;14.02;100.00;99465.09;4974217;28;20038;-60
2022/10/27 04:35:37;;;;;;;9.63;5.25;;;;;;;13.98;100.00;99466.34;4980983;28;20046;-61
2022/10/27 04:38:02;;;;;;;8.82;5.20;;;;;;;13.93;100.00;99464.19;4977639;28;20589;-60
2022/10/27 04:40:28;;;;;;;11.77;5.50;;;;;;;13.90;100.00;99459.22;4975114;28;20031;-59
2022/10/27 04:42:54;;;;;;;11.05;5.40;;;;;;;13.97;100.00;99470.75;4972508;28;20035;-60
2022/10/27 04:45:19;;;;;;;8.98;4.95;;;;;;;13.94;100.00;99473.66;4976192;28;20552;-59
2022/10/27 04:47:45;;;;;;;12.82;5.60;;;;;;;13.94;100.00;99476.25;4974998;28;20038;-60
2022/10/27 04:50:14;;;;;;;11.25;5.38;;;;;;;13.91;100.00;99475.72;4973119;28;20026;-60
2022/10/27 04:52:40;;;;;;;10.57;4.93;;;;;;;13.89;100.00;99481.13;4960998;28;20030;-60
2022/10/27 04:55:06;;;;;;;11.07;5.22;;;;;;;13.90;100.00;99492.41;4979300;28;20155;-60
2022/10/27 04:57:32;;;;;;;11.10;5.13;;;;;;;13.89;100.00;99483.75;4971848;28;20680;-60
2022/10/27 04:59:57;;;;;;;11.77;4.95;;;;;;;13.81;100.00;99476.59;4975595;28;20036;-60
2022/10/27 05:02:22;;;;;;;12.02;5.43;;;;;;;13.81;100.00;99486.25;4974856;28;20037;-60
2022/10/27 05:04:48;;;;;;;12.48;5.40;;;;;;;13.83;100.00;99486.91;4978330;28;20038;-59
2022/10/27 05:07:13;;;;;;;9.13;5.13;;;;;;;13.80;100.00;99487.22;4977869;28;20030;-60
2022/10/27 05:09:39;;;;;;;9.43;4.88;;;;;;;13.75;100.00;99481.59;4975755;28;20037;-60
2022/10/27 05:12:04;;;;;;;12.10;5.47;;;;;;;13.43;100.00;99456.66;4973608;28;20037;-60
2022/10/27 05:14:30;;;;;;;10.93;5.43;;;;;;;13.78;100.00;99494.34;4982483;28;20041;-60
2022/10/27 05:16:55;;;;;;;13.65;6.28;;;;;;;13.57;100.00;99456.22;4972358;28;20513;-60
2022/10/27 05:19:20;;;;;;;11.35;5.18;;;;;;;13.80;100.00;99501.09;4951017;28;20033;-60
2022/10/27 05:21:46;;;;;;;12.88;5.60;;;;;;;13.59;100.00;99490.84;4969800;28;20035;-60
2022/10/27 05:24:11;;;;;;;11.75;5.57;;;;;;;13.74;100.00;99501.66;4975249;28;20129;-60
2022/10/27 05:26:37;;;;;;;12.70;5.88;;;;;;;13.78;100.00;99505.66;4968138;28;20038;-60
2022/10/27 05:29:02;;;;;;;14.65;5.00;;;;;;;13.73;100.00;99507.06;4968342;28;20485;-60
2022/10/27 05:31:28;;;;;;;11.57;5.55;;;;;;;13.77;100.00;99516.25;4953929;28;20076;-60
2022/10/27 05:33:53;;;;;;;12.38;5.38;;;;;;;13.73;100.00;99514.91;4974194;28;20058;-60
2022/10/27 05:36:18;;;;;;;10.48;5.30;;;;;;;13.76;100.00;99507.59;4972501;28;20121;-60
2022/10/27 05:38:45;;;;;;;11.27;4.97;;;;;;;13.81;100.00;99509.78;4988592;28;20725;-60
2022/10/27 05:41:11;;;;;;;10.10;5.30;;;;;;;13.83;100.00;99515.66;4970862;28;20109;-60
2022/10/27 05:43:37;;;;;;;10.57;4.97;;;;;;;13.69;100.00;99505.69;4959883;28;20148;-60
2022/10/27 05:46:03;;;;;;;9.05;4.95;;;;;;;13.79;100.00;99509.09;4965995;28;20449;-60
2022/10/27 05:48:29;;;;;;;10.45;5.10;;;;;;;13.78;100.00;99508.28;4972847;28;20656;-60
2022/10/27 05:50:54;;;;;;;9.75;4.93;;;;;;;13.58;100.00;99484.00;4971300;28;20027;-60
2022/10/27 05:53:20;;;;;;;8.70;5.00;;;;;;;13.77;100.00;99516.25;4959521;28;20084;-60
2022/10/27 05:55:46;;;;;;;10.60;5.63;;;;;;;13.78;100.00;99525.72;4966532;28;20026;-60
2022/10/27 05:58:11;;;;;;;9.75;4.70;;;;;;;13.73;100.00;99525.34;4969498;28;20072;-60
2022/10/27 06:00:38;;;;;;;12.43;5.43;;;;;;;13.61;100.00;99491.53;4969212;28;20406;-60
2022/10/27 06:03:05;;;;;;;11.55;5.38;;;;;;;13.77;100.00;99540.59;4956599;28;20116;-60
2022/10/27 06:05:33;;;;;;;10.90;5.07;;;;;;;13.77;100.00;99540.59;4970928;28;20039;-60
2022/10/27 06:07:59;;;;;;;9.40;4.88;;;;;;;13.57;100.00;99505.03;4967329;28;20081;-60
2022/10/27 06:10:25;;;;;;;8.75;4.57;;;;;;;13.73;100.00;99541.84;4975357;28;20625;-60
2022/10/27 06:12:50;;;;;;;11.13;4.93;;;;;;;13.70;100.00;99541.31;4975790;28;20034;-59
2022/10/27 06:15:15;;;;;;;10.43;5.45;;;;;;;13.64;100.00;99543.53;4972756;28;20121;-60
2022/10/27 06:17:41;;;;;;;12.40;5.10;;;;;;;13.71;100.00;99553.41;4976378;28;20031;-61
2022/10/27 06:20:07;;;;;;;9.40;4.82;;;;;;;13.65;100.00;99553.03;4979077;28;20542;-60
2022/10/27 06:22:33;;;;;;;9.77;5.05;;;;;;;13.69;100.00;99550.09;4968615;28;20396;-60
2022/10/27 06:24:58;;;;;;;10.45;5.32;;;;;;;13.73;100.00;99561.94;4974771;28;20034;-60
2022/10/27 06:27:24;;;;;;;93.85;16.52;;;;;;;13.61;100.00;99553.44;4970290;28;20031;-60
2022/10/27 06:29:50;;;;;;;27.10;6.72;;;;;;;13.34;100.00;99546.31;4971842;28;20082;-60
2022/10/27 06:32:15;;;;;;;12.35;5.63;;;;;;;13.52;100.00;99573.38;4975578;28;20066;-60
2022/10/27 06:34:40;;;;;;;13.02;5.72;;;;;;;13.56;100.00;99571.31;4966727;28;20034;-60
2022/10/27 06:37:06;;;;;;;12.18;6.15;;;;;;;13.65;100.00;99578.31;4975052;28;20031;-61
2022/10/27 06:39:32;;;;;;;10.20;5.70;;;;;;;13.67;100.00;99581.59;4959733;28;20113;-60
2022/10/27 06:41:57;;;;;;;11.45;5.65;;;;;;;13.68;100.00;99588.50;4972048;28;20569;-61
2022/10/27 06:44:23;;;;;;;9.85;5.88;;;;;;;13.65;100.00;99594.84;4971855;28;20042;-60
2022/10/27 06:46:49;;;;;;;12.38;5.68;;;;;;;13.68;100.00;99605.97;4960174;28;20155;-60
2022/10/27 06:49:15;;;;;;;11.73;5.72;;;;;;;13.55;100.00;99588.78;4976930;28;20046;-60
2022/10/27 06:51:40;;;;;;;11.05;5.70;;;;;;;13.63;100.00;99601.16;4980315;28;20034;-60
2022/10/27 06:54:06;;;;;;;11.82;6.03;;;;;;;13.45;100.00;99593.19;4981495;28;20074;-60
2022/10/27 06:56:31;;;;;;;11.35;6.32;;;;;;;13.42;100.00;99591.69;4983534;28;20035;-61
2022/10/27 06:58:56;;;;;;;17.00;6.72;;;;;;;13.59;100.00;99608.44;4978799;28;20134;-60
2022/10/27 07:01:23;;;;;;;12.45;5.70;;;;;;;13.36;100.00;99570.50;4979670;28;20054;-60
2022/10/27 07:03:49;;;;;;;11.38;5.60;;;;;;;13.63;100.00;99602.00;4991603;28;20044;-60
2022/10/27 07:06:15;;;;;;;13.48;6.32;;;;;;;13.62;100.00;99605.56;4981195;28;20748;-60
2022/10/27 07:08:40;;;;;;;8.90;5.00;;;;;;;13.39;100.00;99567.63;4994446;28;20044;-60
2022/10/27 07:11:06;;;;;;;9.68;5.28;;;;;;;13.71;100.00;99611.75;4975773;28;20669;-61
2022/10/27 07:13:31;;;;;;;10.73;5.30;;;;;;;13.76;100.00;99609.53;4981064;28;20062;-60
2022/10/27 07:15:57;;;;;;;11.82;5.82;;;;;;;13.57;100.00;99570.38;4961592;28;20089;-60
2022/10/27 07:18:22;;;;;;;10.57;5.40;;;;;;;13.81;100.00;99614.31;4981989;28;20034;-61
2022/10/27 07:20:48;;;;;;;12.30;5.38;;;;;;;13.75;100.00;99609.66;4980831;28;20537;-60
2022/10/27 07:23:14;;;;;;;14.27;6.50;;;;;;;13.79;100.00;99621.50;4978086;28;20127;-60
2022/10/27 07:25:39;;;;;;;13.52;6.45;;;;;;;13.78;100.00;99601.53;4972203;28;20027;-61
2022/10/27 07:28:05;;;;;;;10.10;5.80;;;;;;;13.74;100.00;99616.66;4993645;28;20038;-60
2022/10/27 07:30:33;;;;;;;12.43;5.40;;;;;;;13.45;100.00;99574.91;4962745;28;20053;-60
2022/10/27 07:32:59;;;;;;;10.55;5.05;;;;;;;13.76;100.00;99622.59;4984668;28;20042;-60
2022/10/27 07:35:25;;;;;;;13.70;5.97;;;;;;;13.79;100.00;99624.91;4977266;28;20034;-60
2022/10/27 07:37:50;;;;;;;15.35;7.22;;;;;;;13.77;100.00;99631.25;4960629;28;20030;-59
2022/10/27 07:40:18;;;;;;;9.38;5.15;;;;;;;13.63;100.00;99616.81;4952858;28;20018;-59
2022/10/27 07:42:51;;;;;;;17.90;8.95;;;;;;;13.66;100.00;99634.84;4978992;28;20031;-60
2022/10/27 07:45:18;;;;;;;22.40;11.00;;;;;;;13.72;100.00;99639.50;4979024;28;20022;-60
2022/10/27 07:47:44;;;;;;;20.48;10.88;;;;;;;13.77;100.00;99645.16;4976650;28;20043;-60
2022/10/27 07:50:12;;;;;;;19.73;9.60;;;;;;;13.83;100.00;99662.06;4997081;28;20439;-60
2022/10/27 07:52:45;;;;;;;14.73;8.00;;;;;;;13.70;100.00;99646.66;4973512;28;20158;-61
2022/10/27 07:55:13;;;;;;;15.43;7.53;;;;;;;13.73;100.00;99650.81;4981673;28;20049;-60
2022/10/27 07:57:39;;;;;;;15.30;5.75;;;;;;;13.65;100.00;99639.25;4978239;28;20030;-60
2022/10/27 08:00:06;;;;;;;13.40;7.13;;;;;;;13.56;100.00;99610.50;4984760;28;20037;-60
2022/10/27 08:02:32;;;;;;;16.00;7.93;;;;;;;13.53;100.00;99616.84;4976792;28;20117;-60
2022/10/27 08:04:57;;;;;;;10.70;5.32;;;;;;;13.73;100.00;99650.81;4980055;28;20146;-60
2022/10/27 08:07:23;;;;;;;13.00;5.75;;;;;;;13.73;100.00;99653.44;4962230;28;20050;-60
2022/10/27 08:09:49;;;;;;;13.10;6.55;;;;;;;13.77;100.00;99647.75;4978890;28;20038;-60
2022/10/27 08:12:14;;;;;;;15.23;7.70;;;;;;;13.80;100.00;99650.09;4977802;28;20837;-60
2022/10/27 08:14:39;;;;;;;10.70;6.65;;;;;;;13.79;100.00;99660.69;4977676;28;20031;-60
2022/10/27 08:17:05;;;;;;;9.73;5.95;;;;;;;13.82;100.00;99660.44;4976191;28;20038;-59
2022/10/27 08:19:30;;;;;;;9.65;4.82;;;;;;;13.72;100.00;99665.66;4989144;28;20022;-62
2022/10/27 08:21:56;;;;;;;12.13;5.35;;;;;;;13.80;100.00;99664.97;4974973;28;20456;-60
2022/10/27 08:24:21;;;;;;;11.27;5.15;;;;;;;13.82;100.00;99676.13;4967783;28;20034;-60
2022/10/27 08:26:47;;;;;;;11.32;5.45;;;;;;;13.78;100.00;99662.50;4956439;28;20026;-60
2022/10/27 08:29:12;;;;;;;10.88;5.20;;;;;;;13.93;100.00;99664.69;4977990;28;20849;-61
2022/10/27 08:31:37;;;;;;;8.57;5.07;;;;;;;13.91;100.00;99651.75;4979750;28;20034;-61
2022/10/27 08:34:03;;;;;;;11.90;5.15;;;;;;;13.98;100.00;99658.06;4980200;28;20452;-61
2022/10/27 08:36:28;;;;;;;10.75;4.63;;;;;;;13.97;100.00;99655.56;4977470;28;20053;-61
2022/10/27 08:38:53;;;;;;;13.77;4.88;;;;;;;13.92;100.00;99648.16;4988945;28;20038;-61
2022/10/27 08:41:23;;;;;;;11.40;5.00;;;;;;;13.67;100.00;99610.34;4969954;28;20040;-61
2022/10/27 08:43:54;;;;;;;9.55;4.85;;;;;;;13.96;100.00;99654.75;4975886;28;20038;-60
2022/10/27 08:46:41;;;;;;;11.57;4.53;;;;;;;13.99;100.00;99649.22;4978673;28;20370;-61
2022/10/27 08:49:26;;;;;;;10.27;4.45;;;;;;;14.02;100.00;99641.13;4972273;28;20049;-61
2022/10/27 08:51:53;;;;;;;12.20;4.75;;;;;;;14.07;100.00;99647.69;4970792;28;20532;-59
2022/10/27 08:54:21;;;;;;;12.43;4.80;;;;;;;14.08;100.00;99651.97;4980181;28;20412;-60
2022/10/27 08:56:47;;;;;;;9.85;4.43;;;;;;;14.11;100.00;99651.66;4974418;28;20039;-61
2022/10/27 08:59:15;;;;;;;10.57;4.57;;;;;;;14.19;100.00;99655.22;4978656;28;20035;-61
2022/10/27 09:01:52;;;;;;;12.40;5.53;;;;;;;14.08;100.00;99650.19;4974225;28;20044;-61
2022/10/27 09:04:30;;;;;;;9.38;4.57;;;;;;;14.12;100.00;99650.72;4975873;28;20306;-61
2022/10/27 09:07:11;;;;;;;8.73;4.78;;;;;;;14.17;100.00;99640.66;4976112;28;20097;-61
2022/10/27 09:09:42;;;;;;;10.10;5.32;;;;;;;13.89;100.00;99611.00;4975422;28;20049;-60
2022/10/27 09:12:18;;;;;;;9.23;4.90;;;;;;;14.00;100.00;99631.75;4967625;28;20027;-61
2022/10/27 09:15:13;;;;;;;10.15;5.43;;;;;;;14.16;100.00;99646.84;4979098;28;20034;-60
2022/10/27 09:18:13;;;;;;;12.45;4.68;;;;;;;14.24;100.00;99652.19;4978326;28;20813;-61
2022/10/27 09:20:58;;;;;;;11.57;4.40;;;;;;;13.98;100.00;99613.59;5007208;28;20135;-60
2022/10/27 09:23:28;;;;;;;9.45;4.32;;;;;;;14.26;100.00;99663.34;4975070;28;20572;-60
2022/10/27 09:25:56;;;;;;;11.32;4.93;;;;;;;14.22;100.00;99651.53;4961491;28;20034;-60
2022/10/27 09:28:36;;;;;;;8.88;5.13;;;;;;;14.03;100.00;99637.50;4985661;28;20030;-60
2022/10/27 09:31:02;;;;;;;13.38;5.13;;;;;;;14.10;100.00;99645.63;4977832;28;20104;-61
2022/10/27 09:33:32;;;;;;;10.02;4.90;;;;;;;14.20;100.00;99659.50;4978023;28;20026;-60
2022/10/27 09:35:57;;;;;;;;;;;;;;;14.23;100.00;99664.44;4973944;28;20038;-61
2022/10/27 09:38:24;;;;;;;13.13;6.13;;;;;;;14.20;100.00;99651.66;5005288;28;19921;-61
2022/10/27 09:40:51;;;;;;;8.93;5.22;;;;;;;14.04;100.00;99614.81;4972305;28;20030;-60
2022/10/27 09:43:18;;;;;;;12.10;6.00;;;;;;;14.38;100.00;99656.97;4963920;28;20820;-61
2022/10/27 09:45:44;;;;;;;12.15;4.63;;;;;;;14.48;100.00;99662.16;4974814;28;20496;-60
2022/10/27 09:48:17;;;;;;;9.25;4.00;;;;;;;14.54;100.00;99660.75;4977870;28;20042;-60
2022/10/27 09:50:52;;;;;;;10.95;4.38;;;;;;;14.61;100.00;99665.28;4957101;28;20093;-60
2022/10/27 09:53:40;;;;;;;9.38;3.72;;;;;;;14.74;100.00;99657.09;4962108;28;20398;-60
2022/10/27 09:56:09;;;;;;;8.73;4.15;;;;;;;14.69;100.00;99621.88;4968455;28;20027;-60
2022/10/27 09:58:47;;;;;;;11.37;4.10;;;;;;;15.06;100.00;99666.31;4971441;28;20058;-60
2022/10/27 10:01:12;;;;;;;14.13;4.00;;;;;;;15.12;100.00;99663.09;4984864;28;20118;-60
2022/10/27 10:03:38;;;;;;;9.52;4.20;;;;;;;15.12;100.00;99657.03;4976668;28;20113;-59
2022/10/27 10:06:05;;;;;;;9.50;3.47;;;;;;;15.26;100.00;99664.38;4964685;28;20100;-59
2022/10/27 10:08:34;;;;;;;8.80;3.35;;;;;;;15.03;100.00;99626.50;4975121;28;20065;-60
2022/10/27 10:11:18;;;;;;;8.25;3.25;;;;;;;15.33;100.00;99665.44;4971508;28;20030;-60
2022/10/27 10:13:58;;;;;;;7.00;3.28;;;;;;;15.40;100.00;99665.63;4968561;28;20089;-60
2022/10/27 10:16:26;;;;;;;7.47;3.17;;;;;;;15.34;100.00;99646.09;4965784;28;20126;-59
2022/10/27 10:19:18;;;;;;;7.93;3.40;;;;;;;15.52;100.00;99653.97;4962597;28;20022;-59
2022/10/27 10:21:52;;;;;;;8.05;3.60;;;;;;;15.57;99.37;99648.28;4972121;28;20039;-60
2022/10/27 10:24:27;;;;;;;9.23;4.00;;;;;;;15.67;99.14;99653.41;4984313;28;20065;-60
2022/10/27 10:26:55;;;;;;;9.98;3.97;;;;;;;15.69;99.95;99646.22;4969685;28;20038;-59
2022/10/27 10:29:38;;;;;;;8.07;3.10;;;;;;;15.56;98.21;99615.97;4975130;28;20030;-59
2022/10/27 10:32:18;;;;;;;7.03;3.00;;;;;;;15.52;95.42;99608.59;4988070;28;20129;-60
2022/10/27 10:34:44;;;;;;;13.45;3.30;;;;;;;15.83;94.35;99639.66;4974064;28;20022;-60
2022/10/27 10:37:53;;;;;;;9.40;3.50;;;;;;;15.95;96.71;99647.09;4983696;28;20039;-59
2022/10/27 10:40:21;;;;;;;8.60;3.42;;;;;;;15.73;97.60;99610.84;4976730;28;20077;-59
2022/10/27 10:42:52;;;;;;;8.85;3.53;;;;;;;16.10;95.11;99646.53;4973093;28;20034;-60
2022/10/27 10:45:21;;;;;;;11.32;3.67;;;;;;;16.21;94.67;99641.03;4980094;28;20493;-60
2022/10/27 10:47:50;;;;;;;8.43;3.25;;;;;;;16.25;96.08;99639.72;4974983;28;20034;-59
2022/10/27 10:50:16;;;;;;;6.85;3.08;;;;;;;16.32;93.60;99627.63;4979366;28;20029;-60
2022/10/27 10:52:47;;;;;;;7.30;3.33;;;;;;;16.45;93.11;99629.00;4990646;28;20042;-60
2022/10/27 10:55:24;;;;;;;5.85;3.00;;;;;;;16.45;92.98;99626.38;4978819;28;20035;-60
2022/10/27 10:57:51;;;;;;;7.47;3.13;;;;;;;16.40;91.67;99610.28;4971612;28;20034;-59
2022/10/27 11:00:19;;;;;;;9.32;3.10;;;;;;;16.40;93.29;99611.09;4986157;28;20034;-60
2022/10/27 11:03:13;;;;;;;8.43;3.35;;;;;;;16.43;94.39;99592.41;4974343;28;20034;-60
2022/10/27 11:05:40;;;;;;;9.40;3.17;;;;;;;16.52;92.81;99588.00;4972519;28;20466;-60
2022/10/27 11:08:13;;;;;;;9.05;3.80;;;;;;;16.56;95.95;99594.59;4972081;28;20528;-60
2022/10/27 11:10:40;;;;;;;9.60;4.13;;;;;;;16.64;96.66;99589.34;4971544;28;20038;-61
2022/10/27 11:13:14;;;;;;;10.75;4.60;;;;;;;16.64;97.74;99591.97;4968544;28;20044;-60
2022/10/27 11:15:50;;;;;;;8.35;3.70;;;;;;;16.81;96.62;99589.38;4982448;28;20684;-60
2022/10/27 11:18:16;;;;;;;8.13;4.13;;;;;;;16.85;97.20;99585.50;4969846;28;20050;-60
2022/10/27 11:20:44;;;;;;;11.02;4.53;;;;;;;17.01;93.51;99588.16;4972006;28;20033;-59
2022/10/27 11:23:15;;;;;;;9.13;4.05;;;;;;;17.18;90.37;99596.06;4960327;28;20043;-59
2022/10/27 11:25:41;;;;;;;12.00;4.40;;;;;;;17.16;92.02;99583.06;4971071;28;20030;-59
2022/10/27 11:28:23;;;;;;;8.13;3.47;;;;;;;17.24;100.00;99593.56;4978788;28;20413;-59